Time;durP1;ratioP1;P1;durP2;ratioP2;P2;SDS_P1;SDS_P2;PMS_P1;PMS_P2;Temp;Humidity;BMP_temperature;BMP_pressure;BME280_temperature;BME280_humidity;BME280_pressure;Samples;Min_cycle;Max_cycle;Signal;HPM_P1;HPM_P2
2021/11/20 12:43:03;;;;;;;9.23;4.40;;;10.90;99.90;;;;;;4917724;29;20224;-69
2021/11/20 12:45:46;;;;;;;7.80;3.80;;;10.80;99.90;;;;;;4925732;29;20688;-68
2021/11/20 12:48:42;;;;;;;6.90;3.73;;;10.90;99.90;;;;;;4935616;29;20229;-68
2021/11/20 12:51:11;;;;;;;7.07;3.70;;;11.00;99.90;;;;;;4935271;29;20247;-74
2021/11/20 12:53:40;;;;;;;8.40;3.97;;;10.90;99.90;;;;;;4935385;29;20205;-76
2021/11/20 12:56:28;;;;;;;9.13;4.20;;;10.90;99.90;;;;;;4935738;29;20208;-79
2021/11/20 12:58:58;;;;;;;8.70;4.43;;;10.80;99.90;;;;;;4896925;29;20237;-67
2021/11/20 13:01:32;;;;;;;8.20;4.33;;;10.80;99.90;;;;;;4897307;29;20225;-68
2021/11/20 13:04:12;;;;;;;8.53;4.43;;;10.90;99.90;;;;;;4897325;29;20210;-74
2021/11/20 13:06:50;;;;;;;7.17;3.90;;;10.90;99.90;;;;;;4897342;29;20218;-67
2021/11/20 13:09:31;;;;;;;7.57;3.80;;;10.80;99.90;;;;;;4905422;29;20209;-73
2021/11/20 13:12:03;;;;;;;8.50;3.77;;;10.80;99.90;;;;;;4916157;29;20216;-67
2021/11/20 13:15:05;;;;;;;7.77;4.13;;;10.80;99.90;;;;;;4916329;29;20212;-71
2021/11/20 13:17:36;;;;;;;7.20;3.80;;;10.70;99.90;;;;;;4915873;29;20225;-68
2021/11/20 13:20:12;;;;;;;9.83;4.20;;;10.80;99.90;;;;;;4916500;29;20269;-68
2021/11/20 13:22:42;;;;;;;6.00;3.70;;;10.80;99.90;;;;;;4916363;29;20216;-68
2021/11/20 13:25:14;;;;;;;9.37;3.67;;;10.60;99.90;;;;;;4916297;29;20216;-68
2021/11/20 13:28:00;;;;;;;8.53;3.80;;;10.70;99.90;;;;;;4916078;29;20230;-68
2021/11/20 13:30:32;;;;;;;7.20;3.90;;;10.90;99.90;;;;;;4916299;29;20327;-69
2021/11/20 13:33:02;;;;;;;8.37;3.97;;;11.00;99.90;;;;;;4916289;29;20216;-68
2021/11/20 13:35:30;;;;;;;7.93;3.97;;;11.00;99.90;;;;;;4916139;29;20205;-68
2021/11/20 13:37:59;;;;;;;5.90;3.33;;;11.00;99.90;;;;;;4916132;29;20226;-68
2021/11/20 13:40:29;;;;;;;5.43;3.37;;;11.00;99.90;;;;;;4915529;29;20598;-67
2021/11/20 13:42:58;;;;;;;7.70;4.13;;;11.00;99.90;;;;;;4915998;29;20210;-69
2021/11/20 13:45:27;;;;;;;6.87;3.53;;;10.90;99.90;;;;;;4917833;29;20205;-68
2021/11/20 13:47:54;;;;;;;8.23;4.03;;;10.80;99.90;;;;;;4919072;29;20244;-68
2021/11/20 13:50:22;;;;;;;7.37;4.20;;;10.80;99.90;;;;;;4909597;29;20710;-72
2021/11/20 13:52:49;;;;;;;6.93;4.00;;;10.80;99.90;;;;;;4909903;29;20211;-67
2021/11/20 13:55:18;;;;;;;9.03;4.57;;;10.60;99.90;;;;;;4908140;29;20206;-68
2021/11/20 13:57:48;;;;;;;7.17;4.13;;;10.60;99.90;;;;;;4909122;29;20312;-67
2021/11/20 14:00:18;;;;;;;6.60;4.00;;;10.60;99.90;;;;;;4910289;29;20201;-68
2021/11/20 14:02:47;;;;;;;7.57;3.80;;;10.80;99.90;;;;;;4909358;29;20207;-68
2021/11/20 14:05:15;;;;;;;6.13;3.93;;;10.80;99.90;;;;;;4908079;29;20203;-67
2021/11/20 14:07:42;;;;;;;7.00;3.47;;;10.80;99.90;;;;;;4909651;29;20233;-68
2021/11/20 14:10:13;;;;;;;6.37;3.70;;;10.80;99.90;;;;;;4909463;29;20230;-67
2021/11/20 14:12:52;;;;;;;7.07;4.00;;;10.70;99.90;;;;;;4913229;29;20201;-67
2021/11/20 14:15:20;;;;;;;6.07;3.57;;;10.70;99.90;;;;;;4918977;29;20209;-68
2021/11/20 14:17:49;;;;;;;6.70;3.90;;;10.80;99.90;;;;;;4918638;29;20232;-68
2021/11/20 14:20:17;;;;;;;6.20;3.90;;;10.80;99.90;;;;;;4918905;29;20247;-70
2021/11/20 14:22:45;;;;;;;6.37;4.03;;;10.80;99.90;;;;;;4918945;29;20213;-68
2021/11/20 14:25:21;;;;;;;8.10;5.03;;;10.70;99.90;;;;;;4918929;29;20578;-67
2021/11/20 14:27:56;;;;;;;7.10;3.97;;;10.70;99.90;;;;;;4918681;29;20233;-68
2021/11/20 14:30:24;;;;;;;7.53;3.90;;;10.60;99.90;;;;;;4918432;29;20243;-69
2021/11/20 14:32:52;;;;;;;5.90;3.70;;;10.60;99.90;;;;;;4918323;29;20210;-67
2021/11/20 14:35:19;;;;;;;6.70;3.67;;;10.40;99.90;;;;;;4918896;29;20340;-68
2021/11/20 14:37:46;;;;;;;7.87;3.43;;;10.30;99.90;;;;;;4918845;29;20240;-68
2021/11/20 14:40:13;;;;;;;6.23;3.70;;;10.40;99.90;;;;;;4918519;29;20696;-68
2021/11/20 14:42:43;;;;;;;6.80;3.63;;;10.30;99.90;;;;;;4918585;29;20205;-68
2021/11/20 14:45:14;;;;;;;5.77;3.70;;;10.30;99.90;;;;;;4918533;29;20281;-68
2021/11/20 14:47:45;;;;;;;5.70;3.43;;;10.40;99.90;;;;;;4918426;29;20316;-68
2021/11/20 14:50:19;;;;;;;7.27;4.10;;;10.40;99.90;;;;;;4918572;29;20237;-68
2021/11/20 14:52:47;;;;;;;6.07;3.50;;;10.50;99.90;;;;;;4918284;29;20218;-68
2021/11/20 14:55:14;;;;;;;5.93;3.70;;;10.50;99.90;;;;;;4918203;29;20209;-67
2021/11/20 14:57:41;;;;;;;6.03;3.80;;;10.50;99.90;;;;;;4918068;29;20236;-68
2021/11/20 15:00:13;;;;;;;7.40;3.77;;;10.50;99.90;;;;;;4918423;29;20278;-68
2021/11/20 15:02:40;;;;;;;4.93;3.30;;;10.50;99.90;;;;;;4918301;29;20213;-68
2021/11/20 15:05:08;;;;;;;7.27;3.67;;;10.40;99.90;;;;;;4917959;29;20214;-68
2021/11/20 15:07:36;;;;;;;7.70;3.80;;;10.40;99.90;;;;;;4917769;29;20234;-68
2021/11/20 15:10:04;;;;;;;6.20;3.60;;;10.40;99.90;;;;;;4917957;29;20238;-68
2021/11/20 15:12:31;;;;;;;6.20;3.60;;;10.40;99.90;;;;;;4918227;29;20210;-68
2021/11/20 15:14:58;;;;;;;6.97;3.77;;;10.30;99.90;;;;;;4918177;29;20206;-67
2021/11/20 15:17:25;;;;;;;7.67;4.13;;;10.20;99.90;;;;;;4918159;29;20241;-68
2021/11/20 15:19:51;;;;;;;11.17;5.30;;;10.00;99.90;;;;;;4917967;29;20552;-67
2021/11/20 15:22:20;;;;;;;9.17;4.70;;;10.00;99.90;;;;;;4917866;29;20214;-68
2021/11/20 15:24:47;;;;;;;10.40;4.50;;;10.00;99.90;;;;;;4917815;29;20216;-68
2021/11/20 15:27:15;;;;;;;7.00;4.17;;;10.00;99.90;;;;;;4917851;29;20230;-68
2021/11/20 15:29:42;;;;;;;7.13;3.93;;;9.90;99.90;;;;;;4917737;29;20209;-69
2021/11/20 15:32:09;;;;;;;7.50;4.00;;;10.00;99.90;;;;;;4917706;29;20237;-67
2021/11/20 15:34:38;;;;;;;8.10;4.30;;;10.00;99.90;;;;;;4917756;29;20213;-69
2021/11/20 15:37:05;;;;;;;6.23;3.67;;;10.00;99.90;;;;;;4917913;29;20725;-71
2021/11/20 15:39:33;;;;;;;6.70;4.03;;;10.00;99.90;;;;;;4917511;29;20304;-68
2021/11/20 15:42:03;;;;;;;7.77;4.40;;;10.00;99.90;;;;;;4917334;29;20488;-70
2021/11/20 15:44:30;;;;;;;7.93;4.50;;;9.90;99.90;;;;;;4917823;29;20265;-72
2021/11/20 15:46:58;;;;;;;5.60;3.73;;;10.00;99.90;;;;;;4917602;29;20220;-78
2021/11/20 15:49:25;;;;;;;6.17;4.17;;;10.00;99.90;;;;;;4917407;29;20667;-69
2021/11/20 15:51:52;;;;;;;7.97;4.50;;;10.10;99.90;;;;;;4916672;29;20244;-71
2021/11/20 15:54:19;;;;;;;7.57;4.40;;;10.20;99.90;;;;;;4916948;29;20210;-69
2021/11/20 15:56:47;;;;;;;6.43;3.83;;;10.40;99.90;;;;;;4916746;29;20248;-78
2021/11/20 15:59:14;;;;;;;6.80;4.13;;;10.40;99.90;;;;;;4916911;29;20209;-68
2021/11/20 16:01:42;;;;;;;9.37;5.13;;;10.40;99.90;;;;;;4916814;29;20209;-69
2021/11/20 16:04:09;;;;;;;7.53;4.10;;;10.40;99.90;;;;;;4916812;29;20217;-70
2021/11/20 16:06:36;;;;;;;6.73;4.03;;;10.40;99.90;;;;;;4916792;29;20681;-69
2021/11/20 16:09:03;;;;;;;8.03;4.30;;;10.30;99.90;;;;;;4916461;29;20235;-74
2021/11/20 16:11:30;;;;;;;8.57;4.23;;;10.30;99.90;;;;;;4916440;29;20237;-69
2021/11/20 16:13:58;;;;;;;8.13;4.63;;;10.40;99.90;;;;;;4916905;29;20582;-69
2021/11/20 16:16:27;;;;;;;9.60;4.40;;;10.40;99.90;;;;;;4916812;29;20209;-69
2021/11/20 16:18:54;;;;;;;9.37;4.90;;;10.40;99.90;;;;;;4916590;29;20233;-70
2021/11/20 16:21:21;;;;;;;7.33;4.23;;;10.30;99.90;;;;;;4916516;29;20218;-74
2021/11/20 16:23:48;;;;;;;6.87;4.30;;;10.30;99.90;;;;;;4916703;29;20217;-67
2021/11/20 16:26:15;;;;;;;7.77;4.33;;;10.30;99.90;;;;;;4916533;29;20214;-68
2021/11/20 16:28:41;;;;;;;10.53;6.20;;;10.30;99.90;;;;;;4916819;29;20240;-69
2021/11/20 16:31:10;;;;;;;9.50;4.80;;;10.20;99.90;;;;;;4916552;29;20237;-68
2021/11/20 16:33:38;;;;;;;9.13;4.83;;;10.40;99.90;;;;;;4916445;29;20248;-78
2021/11/20 16:36:06;;;;;;;7.83;4.87;;;10.20;99.90;;;;;;4916913;29;20213;-68
2021/11/20 16:38:49;;;;;;;7.23;4.23;;;10.10;99.90;;;;;;4916536;29;20717;-69
2021/11/20 16:41:16;;;;;;;8.20;4.77;;;10.20;99.90;;;;;;4916526;29;20213;-70
2021/11/20 16:43:43;;;;;;;11.03;5.50;;;10.10;99.90;;;;;;4916339;29;20217;-72
2021/11/20 16:46:11;;;;;;;11.53;6.17;;;10.00;99.90;;;;;;4916252;29;20209;-79
2021/11/20 16:48:39;;;;;;;12.17;5.73;;;10.00;99.90;;;;;;4916367;29;20239;-68
2021/11/20 16:51:09;;;;;;;12.27;6.23;;;9.90;99.90;;;;;;4916480;29;20248;-71
2021/11/20 16:53:36;;;;;;;14.53;6.87;;;10.00;99.90;;;;;;4916391;29;20236;-69
2021/11/20 16:56:03;;;;;;;21.83;7.37;;;10.00;99.90;;;;;;4915933;29;20216;-71
2021/11/20 16:58:30;;;;;;;16.67;7.80;;;10.10;99.90;;;;;;4915759;29;20623;-69
2021/11/20 17:00:57;;;;;;;17.43;8.53;;;10.10;99.90;;;;;;4916616;29;20213;-68
2021/11/20 17:03:26;;;;;;;16.87;8.13;;;10.10;99.90;;;;;;4915990;29;20562;-68
2021/11/20 17:05:53;;;;;;;20.50;7.80;;;10.00;99.90;;;;;;4916317;29;20213;-68
2021/11/20 17:08:20;;;;;;;17.67;8.30;;;10.10;99.90;;;;;;4916028;29;20718;-70
2021/11/20 17:10:47;;;;;;;15.80;8.03;;;10.10;99.90;;;;;;4915930;29;20230;-69
2021/11/20 17:13:14;;;;;;;19.60;9.10;;;10.20;99.90;;;;;;4915919;29;20678;-68
2021/11/20 17:15:41;;;;;;;18.93;9.13;;;10.00;99.90;;;;;;4916091;29;20210;-76
2021/11/20 17:18:08;;;;;;;17.43;8.40;;;10.00;99.90;;;;;;4916006;29;20234;-78
2021/11/20 17:20:36;;;;;;;19.90;10.30;;;10.00;99.90;;;;;;4919443;29;20218;-68
2021/11/20 17:23:03;;;;;;;19.07;9.07;;;9.80;99.90;;;;;;4919517;29;20216;-78
2021/11/20 17:25:30;;;;;;;18.63;9.13;;;9.80;99.90;;;;;;4919420;29;20217;-70
2021/11/20 17:27:57;;;;;;;18.43;8.20;;;9.70;99.90;;;;;;4920091;29;20578;-69
2021/11/20 17:30:25;;;;;;;17.57;7.57;;;9.80;99.90;;;;;;4919614;29;20220;-68
2021/11/20 17:32:53;;;;;;;12.70;7.17;;;9.80;99.90;;;;;;4919427;29;20241;-68
2021/11/20 17:35:20;;;;;;;15.37;7.93;;;9.80;99.90;;;;;;4919411;29;20209;-68
2021/11/20 17:37:50;;;;;;;15.03;7.03;;;9.80;99.90;;;;;;4919632;29;20233;-68
2021/11/20 17:40:17;;;;;;;13.80;7.10;;;9.70;99.90;;;;;;4919189;29;20218;-68
2021/11/20 17:42:44;;;;;;;11.70;6.00;;;9.80;99.90;;;;;;4919339;29;20221;-69
2021/11/20 17:45:11;;;;;;;12.50;5.93;;;9.80;99.90;;;;;;4919111;29;20671;-68
2021/11/20 17:47:38;;;;;;;10.60;5.87;;;9.80;99.90;;;;;;4919028;29;20229;-68
2021/11/20 17:50:07;;;;;;;9.20;5.40;;;9.70;99.90;;;;;;4919193;29;20213;-68
2021/11/20 17:52:34;;;;;;;11.60;6.03;;;9.80;99.90;;;;;;4919322;29;20248;-67
2021/11/20 17:55:03;;;;;;;11.10;5.83;;;9.70;99.90;;;;;;4919099;29;20674;-68
2021/11/20 17:57:30;;;;;;;9.93;5.77;;;9.70;99.90;;;;;;4919341;29;20256;-67
2021/11/20 17:59:56;;;;;;;11.63;5.80;;;9.50;99.90;;;;;;4919187;29;20213;-69
2021/11/20 18:02:24;;;;;;;11.73;5.90;;;9.30;99.90;;;;;;4918932;29;20209;-69
2021/11/20 18:04:51;;;;;;;9.37;5.07;;;9.30;99.90;;;;;;4919171;29;20209;-70
2021/11/20 18:07:18;;;;;;;10.40;5.50;;;9.40;99.90;;;;;;4918958;29;20233;-68
2021/11/20 18:09:45;;;;;;;16.47;8.00;;;9.40;99.90;;;;;;4919087;29;20213;-69
2021/11/20 18:12:13;;;;;;;11.20;5.80;;;9.40;99.90;;;;;;4918946;29;20256;-68
2021/11/20 18:14:40;;;;;;;11.13;6.10;;;9.40;99.90;;;;;;4918923;29;20224;-68
2021/11/20 18:17:07;;;;;;;11.40;5.80;;;9.40;99.90;;;;;;4919027;29;20236;-69
2021/11/20 18:19:34;;;;;;;14.10;7.13;;;9.40;99.90;;;;;;4918791;29;20213;-72
2021/11/20 18:22:01;;;;;;;12.00;6.37;;;9.40;99.90;;;;;;4918231;29;20759;-71
2021/11/20 18:24:27;;;;;;;10.83;6.00;;;9.40;99.90;;;;;;4917060;29;20201;-68
2021/11/20 18:26:55;;;;;;;11.00;6.23;;;9.40;99.90;;;;;;4909195;29;20198;-72
2021/11/20 18:29:23;;;;;;;12.97;5.93;;;9.30;99.90;;;;;;4916541;29;20709;-71
2021/11/20 18:31:50;;;;;;;11.87;6.30;;;9.40;99.90;;;;;;4915959;29;20237;-68
2021/11/20 18:34:17;;;;;;;10.50;5.67;;;9.30;99.90;;;;;;4917291;29;20205;-69
2021/11/20 18:36:44;;;;;;;10.23;5.90;;;9.30;99.90;;;;;;4918194;29;20220;-68
2021/11/20 18:39:11;;;;;;;11.27;6.40;;;9.30;99.90;;;;;;4918804;29;20212;-69
2021/11/20 18:41:38;;;;;;;12.67;6.87;;;9.30;99.90;;;;;;4919103;29;20252;-69
2021/11/20 18:44:05;;;;;;;12.27;6.23;;;9.30;99.90;;;;;;4918723;29;20206;-69
2021/11/20 18:46:34;;;;;;;11.40;6.40;;;9.30;99.90;;;;;;4918739;29;20214;-70
2021/11/20 18:49:01;;;;;;;10.70;6.17;;;9.30;99.90;;;;;;4918212;29;20225;-69
2021/11/20 18:51:28;;;;;;;11.73;6.03;;;9.30;99.90;;;;;;4918449;29;20233;-69
2021/11/20 18:53:56;;;;;;;10.13;6.13;;;9.40;99.90;;;;;;4918497;29;20697;-68
2021/11/20 18:56:23;;;;;;;9.80;5.50;;;9.40;99.90;;;;;;4918203;29;20217;-70
2021/11/20 18:58:51;;;;;;;10.03;5.87;;;9.30;99.90;;;;;;4917922;29;20229;-72
2021/11/20 19:01:18;;;;;;;11.63;6.57;;;9.30;99.90;;;;;;4918441;29;20214;-68
2021/11/20 19:03:46;;;;;;;11.83;6.37;;;9.30;99.90;;;;;;4918458;29;20243;-68
2021/11/20 19:06:13;;;;;;;9.47;5.47;;;9.40;99.90;;;;;;4918222;29;20214;-69
2021/11/20 19:08:41;;;;;;;12.17;5.60;;;9.30;99.90;;;;;;4918170;29;20226;-69
2021/11/20 19:11:09;;;;;;;10.10;5.70;;;9.40;99.90;;;;;;4918244;29;20213;-69
2021/11/20 19:13:38;;;;;;;10.67;6.00;;;9.30;99.90;;;;;;4917925;29;20216;-69
2021/11/20 19:16:06;;;;;;;10.17;5.53;;;9.40;99.90;;;;;;4918082;29;20221;-69
2021/11/20 19:18:33;;;;;;;10.50;5.60;;;9.30;99.90;;;;;;4918005;29;20280;-70
2021/11/20 19:21:01;;;;;;;12.27;6.20;;;9.20;99.90;;;;;;4917545;29;20224;-71
2021/11/20 19:23:28;;;;;;;14.93;6.00;;;9.10;99.90;;;;;;4917488;29;20210;-78
2021/11/20 19:25:55;;;;;;;12.80;6.13;;;9.00;99.90;;;;;;4917773;29;20221;-70
2021/11/20 19:28:22;;;;;;;12.17;6.57;;;9.00;99.90;;;;;;4917388;29;20277;-72
2021/11/20 19:30:49;;;;;;;13.33;6.80;;;8.90;99.90;;;;;;4917991;29;20210;-73
2021/11/20 19:33:16;;;;;;;14.70;6.67;;;8.90;99.90;;;;;;4917524;29;20244;-80
2021/11/20 19:35:43;;;;;;;11.60;6.40;;;8.90;99.90;;;;;;4917686;29;20212;-73
2021/11/20 19:38:12;;;;;;;11.50;6.63;;;8.90;99.90;;;;;;4917609;29;20240;-75
2021/11/20 19:40:41;;;;;;;11.33;6.23;;;9.00;99.90;;;;;;4917263;29;20256;-77
2021/11/20 19:43:08;;;;;;;11.37;6.87;;;9.00;99.90;;;;;;4916213;29;20277;-77
2021/11/20 19:45:35;;;;;;;13.47;6.50;;;9.00;99.90;;;;;;4917557;29;20626;-78
2021/11/20 19:48:03;;;;;;;12.23;6.33;;;9.10;99.90;;;;;;4917578;29;20230;-73
2021/11/20 19:50:29;;;;;;;12.13;5.97;;;9.10;99.90;;;;;;4917625;29;20283;-77
2021/11/20 19:52:56;;;;;;;13.00;6.27;;;9.10;99.90;;;;;;4917300;29;20707;-79
2021/11/20 19:55:24;;;;;;;12.23;6.40;;;8.90;99.90;;;;;;4917412;29;20305;-72
2021/11/20 19:57:51;;;;;;;13.17;6.80;;;8.90;99.90;;;;;;4917459;29;20229;-73
2021/11/20 20:00:20;;;;;;;15.00;6.60;;;8.90;99.90;;;;;;4917541;29;20213;-78
2021/11/20 20:02:48;;;;;;;13.30;6.73;;;8.90;99.90;;;;;;4917231;29;20667;-72
2021/11/20 20:05:16;;;;;;;13.00;6.87;;;8.90;99.90;;;;;;4917185;29;20658;-71
2021/11/20 20:07:43;;;;;;;14.77;7.07;;;9.00;99.90;;;;;;4916827;29;20230;-75
2021/11/20 20:10:16;;;;;;;17.30;7.13;;;9.00;99.90;;;;;;4917000;29;20327;-79
2021/11/20 20:12:45;;;;;;;16.17;6.90;;;9.00;99.90;;;;;;4917187;29;20368;-78
2021/11/20 20:15:12;;;;;;;13.87;7.20;;;8.90;99.90;;;;;;4916953;29;20674;-69
2021/11/20 20:17:39;;;;;;;13.80;6.53;;;8.70;99.90;;;;;;4917220;29;20239;-69
2021/11/20 20:20:09;;;;;;;15.17;6.93;;;8.70;99.90;;;;;;4916923;29;20209;-69
2021/11/20 20:22:37;;;;;;;15.47;7.47;;;8.70;99.90;;;;;;4916895;29;20209;-78
2021/11/20 20:25:05;;;;;;;15.17;6.90;;;8.60;99.90;;;;;;4916890;29;20206;-73
2021/11/20 20:27:33;;;;;;;14.60;6.97;;;8.50;99.90;;;;;;4916918;29;20243;-72
2021/11/20 20:30:04;;;;;;;14.60;7.00;;;8.60;99.90;;;;;;4917028;29;20205;-74
2021/11/20 20:32:30;;;;;;;14.90;7.23;;;8.60;99.90;;;;;;4916723;29;20235;-70
2021/11/20 20:34:57;;;;;;;16.10;6.97;;;8.70;99.90;;;;;;4916866;29;20213;-79
2021/11/20 20:37:24;;;;;;;13.07;6.53;;;8.70;99.90;;;;;;4916656;29;20649;-72
2021/11/20 20:39:51;;;;;;;13.90;6.90;;;8.80;99.90;;;;;;4916981;29;20210;-75
2021/11/20 20:42:19;;;;;;;15.70;7.33;;;8.80;99.90;;;;;;4916740;29;20217;-75
2021/11/20 20:44:47;;;;;;;13.33;6.60;;;8.70;99.90;;;;;;4916691;29;20209;-81
2021/11/20 20:47:16;;;;;;;12.90;6.67;;;8.70;99.90;;;;;;4916406;29;20226;-76
2021/11/20 20:49:43;;;;;;;18.87;7.43;;;8.80;99.90;;;;;;4916285;29;20216;-79
2021/11/20 20:52:10;;;;;;;16.23;7.93;;;8.80;99.90;;;;;;4916898;29;20248;-72
2021/11/20 20:54:37;;;;;;;18.13;8.03;;;8.80;99.90;;;;;;4919183;29;20206;-75
2021/11/20 20:57:05;;;;;;;14.87;7.57;;;8.70;99.90;;;;;;4920339;29;20210;-76
2021/11/20 20:59:32;;;;;;;16.60;7.70;;;8.70;99.90;;;;;;4920491;29;20209;-76
2021/11/20 21:02:00;;;;;;;14.33;7.33;;;8.60;99.90;;;;;;4920331;29;20209;-74
2021/11/20 21:04:28;;;;;;;15.37;7.33;;;8.60;99.90;;;;;;4919199;29;20233;-70
2021/11/20 21:06:55;;;;;;;15.77;7.57;;;8.60;99.90;;;;;;4918412;29;20738;-69
2021/11/20 21:09:22;;;;;;;13.47;6.23;;;8.60;99.90;;;;;;4921569;29;20198;-70
2021/11/20 21:11:48;;;;;;;14.73;7.10;;;8.70;99.90;;;;;;4927336;29;20237;-75
2021/11/20 21:14:15;;;;;;;16.73;8.00;;;8.80;99.90;;;;;;4919820;29;20205;-72
2021/11/20 21:16:43;;;;;;;14.40;6.67;;;8.70;99.90;;;;;;4919610;29;20215;-68
2021/11/20 21:19:35;;;;;;;18.13;7.93;;;8.70;99.90;;;;;;4919903;29;20350;-68
2021/11/20 21:22:09;;;;;;;13.50;6.70;;;8.60;99.90;;;;;;4916264;29;20202;-71
2021/11/20 21:24:37;;;;;;;16.67;7.80;;;8.50;99.90;;;;;;4917804;29;20709;-80
2021/11/20 21:27:05;;;;;;;14.90;6.07;;;8.50;99.90;;;;;;4918359;29;20207;-70
2021/11/20 21:29:35;;;;;;;16.20;7.30;;;8.50;99.90;;;;;;4935287;29;20213;-73
2021/11/20 21:32:02;;;;;;;15.97;7.03;;;8.70;99.90;;;;;;4913831;29;20237;-74
2021/11/20 21:34:30;;;;;;;14.63;6.97;;;8.70;99.90;;;;;;4938790;29;20208;-77
2021/11/20 21:36:57;;;;;;;16.43;7.47;;;8.70;99.90;;;;;;4921565;29;20217;-71
2021/11/20 21:39:25;;;;;;;15.30;7.37;;;8.70;99.90;;;;;;4908480;29;20559;-78
2021/11/20 21:41:52;;;;;;;15.50;6.90;;;8.70;99.90;;;;;;4920773;29;20214;-70
2021/11/20 21:44:19;;;;;;;13.97;6.87;;;8.80;99.90;;;;;;4915297;29;20660;-81
2021/11/20 21:46:46;;;;;;;15.43;7.23;;;8.80;99.90;;;;;;4927974;29;20666;-75
2021/11/20 21:49:13;;;;;;;13.63;6.20;;;8.80;99.90;;;;;;4938669;29;20209;-70
2021/11/20 21:51:40;;;;;;;15.97;7.43;;;8.70;99.90;;;;;;4922763;29;20210;-78
2021/11/20 21:54:07;;;;;;;17.87;7.60;;;8.80;99.90;;;;;;4919235;29;20233;-72
2021/11/20 21:56:35;;;;;;;16.27;7.63;;;8.80;99.90;;;;;;4918981;29;20277;-78
2021/11/20 21:59:03;;;;;;;15.70;7.33;;;8.70;99.90;;;;;;4919478;29;20347;-76
2021/11/20 22:01:31;;;;;;;18.40;8.10;;;8.60;99.90;;;;;;4919474;29;20214;-76
2021/11/20 22:03:58;;;;;;;13.30;6.40;;;8.70;99.90;;;;;;4935276;29;20208;-76
2021/11/20 22:06:25;;;;;;;16.97;7.23;;;8.70;99.90;;;;;;4937149;29;20211;-79
2021/11/20 22:08:52;;;;;;;15.90;7.53;;;8.70;99.90;;;;;;4938024;29;20240;-72
2021/11/20 22:11:19;;;;;;;17.07;8.20;;;8.70;99.90;;;;;;4928548;29;20566;-70
2021/11/20 22:13:47;;;;;;;21.40;9.10;;;8.70;99.90;;;;;;4899627;29;20242;-73
2021/11/20 22:16:14;;;;;;;18.17;8.13;;;8.60;99.90;;;;;;4900296;29;20548;-70
2021/11/20 22:18:42;;;;;;;17.20;7.80;;;8.70;99.90;;;;;;4901165;29;20232;-68
2021/11/20 22:21:09;;;;;;;17.23;7.27;;;8.70;99.90;;;;;;4923615;29;20201;-78
2021/11/20 22:23:36;;;;;;;19.93;8.53;;;8.70;99.90;;;;;;4917721;29;20207;-73
2021/11/20 22:26:04;;;;;;;16.10;7.17;;;8.60;99.90;;;;;;4900277;29;20660;-76
2021/11/20 22:28:31;;;;;;;19.27;8.37;;;8.60;99.90;;;;;;4900167;29;20234;-75
2021/11/20 22:30:59;;;;;;;20.50;8.40;;;8.50;99.90;;;;;;4900131;29;20659;-79
2021/11/20 22:33:27;;;;;;;18.93;7.90;;;8.50;99.90;;;;;;4900012;29;20242;-75
2021/11/20 22:35:55;;;;;;;18.03;7.37;;;8.60;99.90;;;;;;4900570;29;20221;-76
2021/11/20 22:38:22;;;;;;;17.80;7.50;;;8.60;99.90;;;;;;4900073;29;20253;-80
2021/11/20 22:40:49;;;;;;;18.13;7.53;;;8.60;99.90;;;;;;4900030;29;20585;-78
2021/11/20 22:43:16;;;;;;;18.93;8.20;;;8.50;99.90;;;;;;4899990;29;20714;-76
2021/11/20 22:45:44;;;;;;;18.20;7.60;;;8.50;99.90;;;;;;4899811;29;20210;-76
2021/11/20 22:48:12;;;;;;;18.13;8.13;;;8.50;99.90;;;;;;4899783;29;20730;-75
2021/11/20 22:50:39;;;;;;;17.90;8.67;;;8.50;99.90;;;;;;4899516;29;20215;-78
2021/11/20 22:53:07;;;;;;;21.93;7.70;;;8.50;99.90;;;;;;4900708;29;20242;-69
2021/11/20 22:55:35;;;;;;;17.67;7.67;;;8.50;99.90;;;;;;4901333;29;20676;-75
2021/11/20 22:58:03;;;;;;;18.50;7.17;;;8.50;99.90;;;;;;4904318;29;20241;-68
2021/11/20 23:00:40;;;;;;;18.50;7.40;;;8.50;99.90;;;;;;4899961;29;20232;-69
2021/11/20 23:03:09;;;;;;;15.90;7.33;;;8.40;99.90;;;;;;4899373;29;20229;-68
2021/11/20 23:05:38;;;;;;;19.37;8.33;;;8.40;99.90;;;;;;4899682;29;20211;-69
2021/11/20 23:08:05;;;;;;;18.30;7.47;;;8.40;99.90;;;;;;4899627;29;20230;-68
2021/11/20 23:10:33;;;;;;;17.90;7.73;;;8.40;99.90;;;;;;4899515;29;20224;-69
2021/11/20 23:13:00;;;;;;;19.30;7.33;;;8.40;99.90;;;;;;4899440;29;20234;-69
2021/11/20 23:15:26;;;;;;;21.67;7.90;;;8.40;99.90;;;;;;4899094;29;20210;-69
2021/11/20 23:17:53;;;;;;;16.10;6.93;;;8.40;99.90;;;;;;4899178;29;20230;-69
2021/11/20 23:20:20;;;;;;;15.83;7.13;;;8.50;99.90;;;;;;4899226;29;20220;-68
2021/11/20 23:22:48;;;;;;;15.90;6.90;;;8.50;99.90;;;;;;4899122;29;20245;-69
2021/11/20 23:25:15;;;;;;;17.23;7.83;;;8.60;99.90;;;;;;4899117;29;20221;-73
2021/11/20 23:27:42;;;;;;;17.07;6.93;;;8.50;99.90;;;;;;4899020;29;20226;-69
2021/11/20 23:30:09;;;;;;;16.33;7.23;;;8.50;99.90;;;;;;4898885;29;20214;-72
2021/11/20 23:32:36;;;;;;;20.17;8.17;;;8.50;99.90;;;;;;4898953;29;20210;-69
2021/11/20 23:35:04;;;;;;;19.20;8.57;;;8.50;99.90;;;;;;4899189;29;20294;-68
2021/11/20 23:37:31;;;;;;;20.17;8.10;;;8.50;99.90;;;;;;4898990;29;20226;-69
2021/11/20 23:39:59;;;;;;;21.83;8.53;;;8.40;99.90;;;;;;4898975;29;20680;-68
2021/11/20 23:42:26;;;;;;;20.03;7.73;;;8.30;99.90;;;;;;4898860;29;20213;-69
2021/11/20 23:44:53;;;;;;;20.03;7.77;;;8.30;99.90;;;;;;4898843;29;20224;-68
2021/11/20 23:47:20;;;;;;;26.93;8.43;;;8.30;99.90;;;;;;4898687;29;20230;-69
2021/11/20 23:49:47;;;;;;;23.27;9.30;;;8.30;99.90;;;;;;4898696;29;20305;-68
2021/11/20 23:52:15;;;;;;;20.63;8.90;;;8.30;99.90;;;;;;4898804;29;20217;-69
2021/11/20 23:54:42;;;;;;;24.77;9.83;;;8.10;99.90;;;;;;4898568;29;20262;-69
2021/11/20 23:57:11;;;;;;;22.37;8.90;;;8.10;99.90;;;;;;4898503;29;20267;-68
2021/11/20 23:59:39;;;;;;;21.33;8.53;;;8.10;99.90;;;;;;4898375;29;20211;-73
